PORT of VIGO

Land: Spain Land: Spain (ES)
Latitude / Longitude: 42.241505° / -8.7212355° Toon op kaart Toon op kaart
Lokale Tijd:  UTC +1
UN/LOCODE: ESVGO
Schepen momenteel in haven: 29
Verwachte aankomsten: 15

Recente Aankomst- en Vertrektijden


Scheepsnaam
Aankomst (UTC)
Aankomst (LT)
Vertrek (UTC)
Vertrek (LT)
Vessel Type: Passagiersboot  ALABUR 2014-10-30 16:43:00 2014-10-30 17:43:00 2014-10-30 17:04:00 2014-10-30 18:04:00
Vessel Type: Passagiersboot  MAR DE CANGAS 2014-10-30 16:18:00 2014-10-30 17:18:00 2014-10-30 16:51:00 2014-10-30 17:51:00
Vessel Type: Vissersboot  ANDREU TRES 2014-10-30 09:30:00 2014-10-30 10:30:00 2014-10-30 16:46:00 2014-10-30 17:46:00
Vessel Type: Passagiersboot  MAR ONZA 2014-10-30 16:45:00 2014-10-30 17:45:00
Vessel Type: Vissersboot  CURUTO DOS 2014-10-30 10:36:00 2014-10-30 11:36:00 2014-10-30 16:36:00 2014-10-30 17:36:00
Vessel Type: Vissersboot  NOVO BALOEIRO 2014-10-30 07:34:00 2014-10-30 08:34:00 2014-10-30 16:35:00 2014-10-30 17:35:00
Vessel Type: Vissersboot  MARCIALITO QUINTO 2014-10-30 07:43:00 2014-10-30 08:43:00 2014-10-30 16:33:00 2014-10-30 17:33:00
Vessel Type: Sleepboot, Loods etc  SALVAMAR MIRACH 2014-10-30 15:36:00 2014-10-30 16:36:00 2014-10-30 16:24:00 2014-10-30 17:24:00
Vessel Type: Vissersboot  NUEVA HERMINIA TRES 2014-10-30 09:45:00 2014-10-30 10:45:00 2014-10-30 16:20:00 2014-10-30 17:20:00
Vessel Type: Passagiersboot  MAR ONZA 2014-10-30 15:54:00 2014-10-30 16:54:00 2014-10-30 16:18:00 2014-10-30 17:18:00

Verwachte aankomsten


Scheepsnaam
Scheduled Arrival (UTC)
Geplande Aankomst (lokale tijd)
Geschatte Aankomsttijd (UTC)
Geschatte Aankomsttijd (Lokaal)
Vessel Type: Vissersboot  PUNTA BARBELA N 2 2014-10-30 21:00:00 2014-10-30 22:00:00
Vessel Type: Cargoschip  LA SURPRISE 2014-10-31 05:00:00 2014-10-31 06:00:00 2014-10-31 07:07:00 2014-10-31 08:07:00
Vessel Type: Cargoschip  VIKING CHANCE 2014-10-31 12:00:00 2014-10-31 13:00:00 2014-10-31 11:30:00 2014-10-31 12:30:00
Vessel Type: Cargoschip  HERM J 2014-11-01 10:30:00 2014-11-01 11:30:00
Vessel Type: Vissersboot  ARGOS PEREIRA 2014-11-02 14:00:00 2014-11-02 15:00:00 2014-11-02 06:05:00 2014-11-02 07:05:00
Vessel Type: Cargoschip  AUTOPRIDE 2014-11-02 15:00:00 2014-11-02 16:00:00 2014-11-02 13:13:00 2014-11-02 14:13:00
Vessel Type: Cargoschip  RMS RATINGEN 2014-11-03 08:00:00 2014-11-03 09:00:00 2014-11-03 07:04:00 2014-11-03 08:04:00
Vessel Type: Cargoschip  GRAND RACE 2014-11-05 05:00:00 2014-11-05 06:00:00 2014-11-04 17:26:00 2014-11-04 18:26:00
Vessel Type: Cargoschip  CFL PROMISE 2014-11-07 02:00:00 2014-11-07 03:00:00 2014-11-07 21:36:00 2014-11-07 22:36:00
Vessel Type: Jachten & Overige  ROALD AMUNDSEN 2014-11-07 15:30:00 2014-11-07 16:30:00

Wind Forecast


    
Tijd (UTC)
Snelheid
Direction
Temperature
2014-10-30 15:00:00 10 knots 213° 22°C
2014-10-30 18:00:00 6 knots 188° 21°C
2014-10-30 21:00:00 8 knots 137° 19°C
2014-10-31 00:00:00 9 knots 171° 18°C
2014-10-31 03:00:00 13 knots 184° 19°C
2014-10-31 06:00:00 14 knots 176° 18°C
2014-10-31 09:00:00 17 knots 191° 20°C
2014-10-31 12:00:00 20 knots 210° 21°C
2014-10-31 15:00:00 18 knots 216° 20°C
2014-10-31 18:00:00 13 knots 208° 19°C
2014-10-31 21:00:00 8 knots 218° 19°C
2014-11-01 00:00:00 4 knots 307° 18°C
2014-11-01 03:00:00 13 knots 17°C
2014-11-01 06:00:00 10 knots 22° 17°C
2014-11-01 09:00:00 8 knots 12° 17°C
2014-11-01 12:00:00 9 knots 348° 17°C
2014-11-01 15:00:00 10 knots 338° 17°C